Time;durP1;ratioP1;P1;durP2;ratioP2;P2;SDS_P1;SDS_P2;PMS_P1;PMS_P2;Temp;Humidity;BMP_temperature;BMP_pressure;BME280_temperature;BME280_humidity;BME280_pressure;Samples;Min_cycle;Max_cycle;Signal;HPM_P1;HPM_P2
2023/06/23 00:00:35;;;;;;;12.43;11.13;;;;;;;15.97;100.00;101736.03;5225618;28;20061;-66
2023/06/23 00:03:06;;;;;;;15.85;11.10;;;;;;;16.02;100.00;101743.75;5225940;28;20041;-66
2023/06/23 00:05:37;;;;;;;14.02;11.80;;;;;;;15.98;100.00;101743.16;5226178;28;20077;-66
2023/06/23 00:08:09;;;;;;;15.88;10.50;;;;;;;15.93;100.00;101756.13;5217102;28;20052;-66
2023/06/23 00:10:40;;;;;;;14.48;11.55;;;;;;;15.93;100.00;101739.16;5217592;28;20456;-66
2023/06/23 00:13:12;;;;;;;14.27;12.38;;;;;;;15.98;100.00;101748.53;5226338;28;20036;-66
2023/06/23 00:15:43;;;;;;;17.40;12.73;;;;;;;15.93;100.00;101757.97;5219284;28;20029;-66
2023/06/23 00:18:15;;;;;;;16.23;12.70;;;;;;;15.94;100.00;101749.78;5225932;28;20025;-66
2023/06/23 00:20:47;;;;;;;21.88;14.13;;;;;;;15.87;100.00;101762.88;5223212;28;20040;-66
2023/06/23 00:23:18;;;;;;;18.38;13.55;;;;;;;15.85;100.00;101767.56;5227043;28;20026;-66
2023/06/23 00:25:49;;;;;;;14.77;12.40;;;;;;;15.81;100.00;101767.94;5222056;28;20684;-66
2023/06/23 00:28:21;;;;;;;21.45;13.85;;;;;;;15.90;100.00;101771.69;5219109;28;20194;-66
2023/06/23 00:30:53;;;;;;;21.63;14.98;;;;;;;15.82;100.00;101777.72;5222903;28;20031;-66
2023/06/23 00:33:24;;;;;;;19.02;14.90;;;;;;;15.86;100.00;101776.50;5223280;28;20037;-66
2023/06/23 00:35:55;;;;;;;21.10;14.80;;;;;;;15.82;100.00;101781.28;5223803;28;20400;-67
2023/06/23 00:38:27;;;;;;;16.88;14.02;;;;;;;15.81;100.00;101784.94;5223889;28;20116;-66
2023/06/23 00:40:59;;;;;;;21.33;15.23;;;;;;;15.77;100.00;101793.41;5226810;28;20033;-66
2023/06/23 00:43:31;;;;;;;21.73;15.93;;;;;;;15.77;100.00;101788.88;5224780;28;20033;-66
2023/06/23 00:46:15;;;;;;;22.10;15.32;;;;;;;15.83;100.00;101792.91;5230073;28;20410;-66
2023/06/23 00:48:48;;;;;;;22.92;16.90;;;;;;;15.69;100.00;101791.34;5222635;28;20744;-66
2023/06/23 00:51:22;;;;;;;20.75;16.08;;;;;;;15.70;100.00;101795.72;5232239;28;20029;-66
2023/06/23 00:53:54;;;;;;;23.00;17.23;;;;;;;15.80;100.00;101803.91;5229655;28;20447;-66
2023/06/23 00:56:27;;;;;;;24.63;17.00;;;;;;;15.68;100.00;101806.59;5229389;28;20029;-66
2023/06/23 00:58:58;;;;;;;21.77;16.80;;;;;;;15.68;100.00;101811.97;5224949;28;20030;-66
2023/06/23 01:01:31;;;;;;;23.67;18.20;;;;;;;15.71;100.00;101821.66;5225765;28;20061;-66
2023/06/23 01:04:02;;;;;;;24.38;18.15;;;;;;;15.69;100.00;101829.00;5231300;28;20037;-66
2023/06/23 01:06:41;;;;;;;24.23;18.58;;;;;;;15.65;100.00;101824.84;5227613;28;20049;-66
2023/06/23 01:09:38;;;;;;;25.60;19.50;;;;;;;15.74;100.00;101840.25;5222952;28;20034;-66
2023/06/23 01:12:34;;;;;;;25.85;19.23;;;;;;;15.72;100.00;101836.78;5224530;28;20747;-66
2023/06/23 01:15:17;;;;;;;28.20;21.42;;;;;;;15.75;100.00;101839.28;5221247;28;20075;-66
2023/06/23 01:17:57;;;;;;;30.60;21.80;;;;;;;15.67;100.00;101839.03;5221880;28;20512;-66
2023/06/23 01:20:35;;;;;;;27.17;20.60;;;;;;;15.65;100.00;101841.00;5222430;28;20336;-66
2023/06/23 01:23:35;;;;;;;30.88;22.08;;;;;;;15.63;100.00;101837.59;5221775;28;20049;-66
2023/06/23 01:26:09;;;;;;;31.23;22.60;;;;;;;15.68;100.00;101832.66;5228157;28;20025;-66
2023/06/23 01:28:49;;;;;;;30.00;23.25;;;;;;;15.66;100.00;101840.00;5224740;28;20099;-66
2023/06/23 01:31:36;;;;;;;34.63;25.73;;;;;;;15.58;100.00;101846.00;5225865;28;20060;-66
2023/06/23 01:34:09;;;;;;;33.40;25.20;;;;;;;15.54;100.00;101847.25;5217581;28;20093;-66
2023/06/23 01:36:49;;;;;;;36.28;25.30;;;;;;;15.58;100.00;101847.84;5221893;28;21929;-66
2023/06/23 01:39:22;;;;;;;37.38;25.77;;;;;;;15.65;100.00;101849.06;5219097;28;20040;-66
2023/06/23 01:42:02;;;;;;;33.63;24.85;;;;;;;15.67;100.00;101847.09;5219857;28;20029;-66
2023/06/23 01:44:37;;;;;;;35.45;25.73;;;;;;;15.56;100.00;101852.50;5218303;28;20100;-66
2023/06/23 01:47:21;;;;;;;32.25;26.58;;;;;;;15.58;100.00;101854.09;5213975;28;20049;-66
2023/06/23 01:49:58;;;;;;;36.95;26.75;;;;;;;15.56;100.00;101853.34;5221159;28;20645;-66
2023/06/23 01:52:34;;;;;;;37.15;26.77;;;;;;;15.49;100.00;101855.69;5225089;28;20531;-66
2023/06/23 01:55:07;;;;;;;34.40;26.63;;;;;;;15.52;100.00;101856.44;5226838;28;20040;-66
2023/06/23 01:57:41;;;;;;;37.40;27.77;;;;;;;15.62;100.00;101863.59;5229372;28;20277;-66
2023/06/23 02:00:15;;;;;;;37.97;29.00;;;;;;;15.52;100.00;101865.34;5224368;28;20037;-66
2023/06/23 02:02:49;;;;;;;;;;;;;;;15.74;100.00;101875.22;5228206;28;20116;-66
2023/06/23 02:05:24;;;;;;;36.40;28.38;;;;;;;15.44;100.00;101874.03;5231148;28;20399;-66
2023/06/23 02:07:58;;;;;;;37.25;28.48;;;;;;;15.47;100.00;101873.81;5223934;28;20026;-66
2023/06/23 02:10:30;;;;;;;37.53;27.75;;;;;;;15.45;100.00;101878.41;5230070;28;20109;-66
2023/06/23 02:13:03;;;;;;;37.38;27.48;;;;;;;15.43;100.00;101879.53;5225879;28;20060;-66
2023/06/23 02:15:36;;;;;;;37.50;28.15;;;;;;;15.31;100.00;101877.84;5229027;28;20806;-66
2023/06/23 02:18:09;;;;;;;37.47;29.50;;;;;;;15.29;100.00;101891.41;5228486;28;20025;-66
2023/06/23 02:20:42;;;;;;;37.30;28.70;;;;;;;15.21;100.00;101892.00;5232140;28;20033;-64
2023/06/23 02:23:15;;;;;;;37.63;29.95;;;;;;;15.24;100.00;101901.66;5225947;28;20047;-64
2023/06/23 02:25:48;;;;;;;36.50;28.40;;;;;;;15.10;100.00;101902.75;5226765;28;20033;-64
2023/06/23 02:28:20;;;;;;;37.70;28.98;;;;;;;15.14;100.00;101901.53;5229880;28;20028;-64
2023/06/23 02:30:53;;;;;;;40.97;30.02;;;;;;;15.18;100.00;101904.84;5229230;28;20033;-64
2023/06/23 02:33:24;;;;;;;40.15;30.02;;;;;;;15.23;100.00;101910.72;5225436;28;20048;-65
2023/06/23 02:35:58;;;;;;;38.88;30.23;;;;;;;15.22;100.00;101914.38;5229265;28;20025;-66
2023/06/23 02:38:31;;;;;;;37.22;28.92;;;;;;;15.15;100.00;101927.47;5232100;28;20029;-66
2023/06/23 02:41:06;;;;;;;40.55;30.33;;;;;;;15.10;100.00;101926.94;5231205;28;20094;-66
2023/06/23 02:43:44;;;;;;;39.78;30.38;;;;;;;15.17;100.00;101930.00;5230244;28;20052;-66
2023/06/23 02:46:18;;;;;;;43.30;31.48;;;;;;;15.17;100.00;101941.63;5228617;28;20025;-66
2023/06/23 02:48:53;;;;;;;39.45;30.17;;;;;;;15.22;100.00;101941.25;5230718;28;20029;-66
2023/06/23 02:51:27;;;;;;;41.60;31.83;;;;;;;15.28;100.00;101936.25;5228924;28;20092;-66
2023/06/23 02:54:05;;;;;;;40.92;32.13;;;;;;;15.17;100.00;101933.56;5227471;28;20037;-66
2023/06/23 02:56:42;;;;;;;39.75;32.17;;;;;;;15.06;100.00;101939.78;5233871;28;20021;-66
2023/06/23 02:59:19;;;;;;;42.63;32.65;;;;;;;15.02;100.00;101946.38;5227316;28;20120;-66
2023/06/23 03:01:53;;;;;;;42.88;32.63;;;;;;;14.94;100.00;101951.50;5225535;28;20021;-66
2023/06/23 03:04:24;;;;;;;50.33;33.30;;;;;;;15.03;100.00;101955.28;5227523;28;20083;-66
2023/06/23 03:06:56;;;;;;;46.53;35.88;;;;;;;15.24;100.00;101948.22;5229024;28;20053;-66
2023/06/23 03:09:28;;;;;;;43.70;34.30;;;;;;;15.39;100.00;101954.22;5218872;28;20083;-66
2023/06/23 03:12:00;;;;;;;47.90;35.38;;;;;;;15.29;100.00;101947.88;5220452;28;20112;-66
2023/06/23 03:14:32;;;;;;;46.80;34.83;;;;;;;15.27;100.00;101947.13;5226284;28;20025;-66
2023/06/23 03:17:22;;;;;;;45.05;34.65;;;;;;;15.39;100.00;101950.69;5220555;28;20029;-66
2023/06/23 03:20:05;;;;;;;45.60;34.42;;;;;;;15.37;100.00;101942.72;5221512;28;20037;-66
2023/06/23 03:22:41;;;;;;;48.78;35.25;;;;;;;15.28;100.00;101946.16;5221875;28;20033;-66
2023/06/23 03:25:19;;;;;;;45.55;35.38;;;;;;;15.36;100.00;101948.22;5217871;28;20037;-66
2023/06/23 03:27:53;;;;;;;50.45;34.70;;;;;;;15.35;100.00;101950.06;5217398;28;20021;-66
2023/06/23 03:30:36;;;;;;;48.80;36.30;;;;;;;15.35;100.00;101952.75;5219730;28;20441;-66
2023/06/23 03:33:32;;;;;;;47.65;35.53;;;;;;;15.36;100.00;101962.56;5214603;28;20037;-66
2023/06/23 03:36:31;;;;;;;45.30;34.13;;;;;;;15.40;100.00;101955.94;5219017;28;20531;-66
2023/06/23 03:39:36;;;;;;;39.90;32.60;;;;;;;15.62;100.00;101955.06;5224370;28;20052;-66
2023/06/23 03:42:08;;;;;;;46.27;35.13;;;;;;;15.41;100.00;101951.41;5219489;28;20055;-66
2023/06/23 03:44:45;;;;;;;46.58;35.20;;;;;;;15.45;100.00;101951.03;5225220;28;20036;-66
2023/06/23 03:47:19;;;;;;;47.45;34.75;;;;;;;15.55;100.00;101953.88;5225353;28;20071;-66
2023/06/23 03:50:00;;;;;;;;;;;;;;;15.60;100.00;101954.34;5223978;28;20135;-66
2023/06/23 03:52:33;;;;;;;46.90;35.65;;;;;;;15.43;100.00;101961.06;5226081;28;19924;-66
2023/06/23 03:55:06;;;;;;;46.72;35.28;;;;;;;15.39;100.00;101951.53;5227513;28;20642;-66
2023/06/23 03:57:41;;;;;;;41.57;33.43;;;;;;;15.21;100.00;101959.22;5214156;28;20064;-66
2023/06/23 04:00:14;;;;;;;46.38;34.70;;;;;;;15.17;100.00;101963.13;5216803;28;20302;-66
2023/06/23 04:02:48;;;;;;;49.92;36.95;;;;;;;15.31;100.00;101967.44;5218481;28;20029;-66
2023/06/23 04:05:21;;;;;;;43.55;34.53;;;;;;;15.33;100.00;101972.69;5211177;28;20416;-66
2023/06/23 04:07:54;;;;;;;46.72;34.50;;;;;;;15.22;100.00;101979.75;5209074;28;20435;-66
2023/06/23 04:10:27;;;;;;;46.35;34.58;;;;;;;15.39;100.00;101983.81;5212381;28;20037;-66
2023/06/23 04:13:01;;;;;;;47.80;35.37;;;;;;;15.47;100.00;101980.50;5212776;28;20731;-66
2023/06/23 04:15:36;;;;;;;45.05;33.70;;;;;;;15.42;100.00;101974.66;5213044;28;20408;-66
2023/06/23 04:18:10;;;;;;;47.55;36.05;;;;;;;15.56;100.00;101990.53;5221572;28;20025;-66
2023/06/23 04:20:44;;;;;;;42.65;34.83;;;;;;;15.48;100.00;101990.31;5212976;28;21047;-66
2023/06/23 04:23:18;;;;;;;45.47;33.45;;;;;;;15.63;100.00;101996.31;5217559;28;20100;-66
2023/06/23 04:25:50;;;;;;;46.40;35.40;;;;;;;15.60;100.00;101994.69;5212204;28;20522;-66
2023/06/23 04:28:24;;;;;;;47.15;35.55;;;;;;;15.65;100.00;102005.13;5216544;28;20144;-66
2023/06/23 04:31:00;;;;;;;48.20;35.63;;;;;;;15.55;100.00;102009.50;5213414;28;20029;-66
2023/06/23 04:33:31;;;;;;;45.25;34.60;;;;;;;15.45;100.00;102002.13;5215231;28;20044;-66
2023/06/23 04:36:15;;;;;;;47.08;35.03;;;;;;;15.69;100.00;102004.72;5215898;28;20053;-66
2023/06/23 04:38:53;;;;;;;43.65;34.28;;;;;;;15.65;100.00;102015.88;5217538;28;20383;-66
2023/06/23 04:41:27;;;;;;;45.72;34.33;;;;;;;15.58;100.00;102017.34;5225127;28;20032;-66
2023/06/23 04:44:03;;;;;;;44.45;35.58;;;;;;;15.63;100.00;102018.69;5216542;28;20033;-66
2023/06/23 04:46:39;;;;;;;45.78;34.17;;;;;;;15.75;100.00;102022.25;5220624;28;20076;-66
2023/06/23 04:49:18;;;;;;;45.45;35.40;;;;;;;15.60;100.00;102018.06;5210167;28;20079;-66
2023/06/23 04:51:53;;;;;;;47.83;35.17;;;;;;;15.68;100.00;102024.53;5212861;28;20033;-66
2023/06/23 04:54:47;;;;;;;46.88;34.50;;;;;;;16.00;100.00;102017.59;5211430;28;21292;-66
2023/06/23 04:57:21;;;;;;;48.90;36.10;;;;;;;15.82;100.00;102015.41;5213879;28;20029;-66
2023/06/23 04:59:56;;;;;;;50.92;35.38;;;;;;;15.87;100.00;102025.78;5211264;28;20141;-66
2023/06/23 05:02:32;;;;;;;49.20;35.88;;;;;;;15.92;100.00;102025.44;5213904;28;20033;-66
2023/06/23 05:05:06;;;;;;;54.90;38.28;;;;;;;16.16;100.00;102039.59;5213236;28;20520;-66
2023/06/23 05:07:39;;;;;;;54.35;37.97;;;;;;;16.06;100.00;102042.19;5211939;28;20033;-66
2023/06/23 05:10:11;;;;;;;53.70;38.35;;;;;;;16.12;100.00;102046.22;5212177;28;20056;-66
2023/06/23 05:12:45;;;;;;;51.83;38.15;;;;;;;16.04;100.00;102049.53;5225039;28;20038;-66
2023/06/23 05:15:18;;;;;;;52.63;37.67;;;;;;;15.89;100.00;102056.13;5227646;28;20079;-66
2023/06/23 05:17:55;;;;;;;53.35;38.08;;;;;;;15.98;100.00;102058.09;5225584;28;20037;-66
2023/06/23 05:20:29;;;;;;;56.10;39.63;;;;;;;16.14;100.00;102057.72;5227082;28;20104;-66
2023/06/23 05:23:04;;;;;;;56.28;38.58;;;;;;;16.21;100.00;102060.78;5221621;28;20294;-66
2023/06/23 05:25:37;;;;;;;55.33;39.78;;;;;;;16.27;100.00;102058.44;5216547;28;20479;-66
2023/06/23 05:28:11;;;;;;;56.90;38.37;;;;;;;16.31;100.00;102055.50;5220869;28;20029;-66
2023/06/23 05:30:44;;;;;;;55.85;39.35;;;;;;;16.38;100.00;102064.78;5221253;28;20382;-66
2023/06/23 05:33:17;;;;;;;54.22;40.08;;;;;;;16.44;100.00;102066.97;5221392;28;20080;-66
2023/06/23 05:35:52;;;;;;;59.42;42.13;;;;;;;16.47;100.00;102080.19;5225295;28;20030;-66
2023/06/23 05:38:25;;;;;;;59.05;40.35;;;;;;;16.55;100.00;102079.56;5225616;28;20025;-67
2023/06/23 05:40:57;;;;;;;58.00;41.00;;;;;;;16.67;100.00;102078.56;5226675;28;20044;-67
2023/06/23 05:43:28;;;;;;;56.42;40.55;;;;;;;16.66;100.00;102076.81;5230015;28;20033;-66
2023/06/23 05:46:06;;;;;;;60.13;41.53;;;;;;;16.82;100.00;102081.84;5230328;28;20503;-67
2023/06/23 05:48:52;;;;;;;63.03;42.45;;;;;;;16.90;100.00;102083.91;5228861;28;20508;-67
2023/06/23 05:51:26;;;;;;;61.38;43.05;;;;;;;16.86;100.00;102091.41;5232354;28;20498;-67
2023/06/23 05:54:01;;;;;;;60.55;40.72;;;;;;;16.91;100.00;102091.84;5227704;28;20041;-67
2023/06/23 05:56:50;;;;;;;62.35;41.22;;;;;;;16.98;100.00;102086.81;5225236;28;20029;-67
2023/06/23 05:59:32;;;;;;;61.65;42.80;;;;;;;17.15;100.00;102088.09;5218676;28;20036;-66
2023/06/23 06:02:06;;;;;;;60.97;42.95;;;;;;;17.17;100.00;102095.06;5225196;28;20028;-67
2023/06/23 06:04:39;;;;;;;;;;;;;;;17.43;100.00;102095.53;5228725;28;20036;-67
2023/06/23 06:07:12;;;;;;;59.55;40.17;;;;;;;17.39;100.00;102095.91;5224854;28;19931;-67
2023/06/23 06:09:45;;;;;;;62.85;41.85;;;;;;;17.48;100.00;102099.69;5216741;28;20025;-67
2023/06/23 06:12:17;;;;;;;61.05;41.88;;;;;;;17.54;100.00;102109.94;5224615;28;20053;-67
2023/06/23 06:14:50;;;;;;;62.10;42.65;;;;;;;17.59;100.00;102115.81;5220105;28;20052;-67
2023/06/23 06:17:24;;;;;;;61.50;41.63;;;;;;;17.63;100.00;102118.09;5217242;28;20036;-67
2023/06/23 06:19:59;;;;;;;63.53;39.72;;;;;;;17.72;100.00;102113.75;5221090;28;21318;-67
2023/06/23 06:22:37;;;;;;;58.70;40.97;;;;;;;17.81;100.00;102118.38;5221269;28;20036;-67
2023/06/23 06:25:11;;;;;;;62.20;41.72;;;;;;;18.01;100.00;102113.09;5221061;28;20255;-67
2023/06/23 06:27:46;;;;;;;55.45;40.38;;;;;;;18.17;100.00;102109.88;5218747;28;20021;-67
2023/06/23 06:30:20;;;;;;;55.13;39.55;;;;;;;18.22;100.00;102108.47;5219712;28;20048;-67
2023/06/23 06:32:53;;;;;;;52.90;37.97;;;;;;;18.32;100.00;102113.91;5220058;28;20131;-68
2023/06/23 06:35:26;;;;;;;50.53;37.13;;;;;;;18.35;100.00;102115.47;5219600;28;20049;-67
2023/06/23 06:37:58;;;;;;;46.55;33.80;;;;;;;18.39;100.00;102119.63;5219149;28;20021;-67
2023/06/23 06:40:30;;;;;;;49.35;35.63;;;;;;;18.45;100.00;102121.78;5222899;28;20434;-67
2023/06/23 06:43:01;;;;;;;44.88;34.45;;;;;;;18.48;100.00;102131.47;5225917;28;20100;-67
2023/06/23 06:45:33;;;;;;;44.58;33.65;;;;;;;18.47;100.00;102129.75;5229309;28;20025;-68
2023/06/23 06:48:05;;;;;;;41.80;33.00;;;;;;;18.51;100.00;102133.91;5216759;28;20760;-67
2023/06/23 06:50:37;;;;;;;45.78;34.60;;;;;;;18.45;100.00;102129.88;5223436;28;20037;-68
2023/06/23 06:53:09;;;;;;;46.03;34.60;;;;;;;18.66;100.00;102145.16;5218141;28;21297;-67
2023/06/23 06:55:41;;;;;;;43.97;32.80;;;;;;;18.69;100.00;102148.44;5220317;28;20045;-67
2023/06/23 06:58:14;;;;;;;42.70;31.80;;;;;;;18.74;100.00;102137.22;5221227;28;20029;-68
2023/06/23 07:00:46;;;;;;;43.58;33.10;;;;;;;18.83;100.00;102136.41;5218563;28;20500;-67
2023/06/23 07:03:17;;;;;;;39.00;31.00;;;;;;;18.84;100.00;102134.56;5218505;28;20029;-68
2023/06/23 07:05:49;;;;;;;39.20;31.48;;;;;;;18.76;100.00;102141.47;5227123;28;20052;-68
2023/06/23 07:08:20;;;;;;;35.55;30.58;;;;;;;18.71;100.00;102143.75;5223035;28;20052;-68
2023/06/23 07:10:52;;;;;;;41.30;31.38;;;;;;;18.83;100.00;102136.41;5227506;28;20136;-68
2023/06/23 07:13:23;;;;;;;38.03;30.38;;;;;;;18.89;100.00;102143.97;5230492;28;20037;-68
2023/06/23 07:15:54;;;;;;;45.35;33.22;;;;;;;19.00;100.00;102156.50;5229702;28;20076;-68
2023/06/23 07:18:26;;;;;;;40.22;31.60;;;;;;;19.07;100.00;102151.38;5224869;28;20479;-68
2023/06/23 07:20:58;;;;;;;37.40;29.50;;;;;;;19.05;100.00;102161.50;5226870;28;20419;-68
2023/06/23 07:23:30;;;;;;;35.53;28.25;;;;;;;19.03;100.00;102148.09;5219203;28;20025;-68
2023/06/23 07:26:01;;;;;;;35.33;28.88;;;;;;;19.15;100.00;102159.63;5222125;28;20028;-68
2023/06/23 07:28:33;;;;;;;34.95;29.02;;;;;;;19.17;100.00;102161.19;5227752;28;20025;-68
2023/06/23 07:31:04;;;;;;;37.15;29.30;;;;;;;19.17;100.00;102152.22;5224415;28;20079;-68
2023/06/23 07:33:36;;;;;;;33.65;26.58;;;;;;;19.18;100.00;102151.25;5224632;28;20439;-68
2023/06/23 07:36:07;;;;;;;31.67;25.30;;;;;;;19.38;100.00;102161.06;5225373;28;20108;-68
2023/06/23 07:38:39;;;;;;;33.67;26.10;;;;;;;19.38;100.00;102154.78;5220983;28;20494;-67
2023/06/23 07:41:10;;;;;;;30.08;25.00;;;;;;;19.47;100.00;102163.94;5222453;28;20580;-68
2023/06/23 07:43:43;;;;;;;30.95;26.02;;;;;;;19.45;100.00;102174.03;5225155;28;20076;-68
2023/06/23 07:46:14;;;;;;;33.33;26.35;;;;;;;19.54;100.00;102168.63;5219884;28;20095;-68
2023/06/23 07:48:45;;;;;;;35.10;26.38;;;;;;;19.58;100.00;102164.63;5224073;28;20484;-68
2023/06/23 07:51:17;;;;;;;30.50;24.73;;;;;;;19.64;100.00;102163.19;5229066;28;20029;-67
2023/06/23 07:53:48;;;;;;;27.42;22.77;;;;;;;19.65;100.00;102169.44;5218848;28;20615;-67
2023/06/23 07:56:20;;;;;;;29.27;23.15;;;;;;;19.71;100.00;102163.44;5228466;28;20032;-67
2023/06/23 07:58:51;;;;;;;27.92;22.48;;;;;;;19.78;100.00;102167.31;5231581;28;20438;-67
2023/06/23 08:01:23;;;;;;;29.63;22.95;;;;;;;19.87;100.00;102165.59;5233359;28;20029;-67
2023/06/23 08:03:54;;;;;;;25.83;20.90;;;;;;;19.89;100.00;102166.31;5228273;28;20066;-68
2023/06/23 08:06:25;;;;;;;26.60;20.08;;;;;;;19.85;100.00;102160.34;5228574;28;20038;-68
2023/06/23 08:08:57;;;;;;;21.17;16.77;;;;;;;19.96;100.00;102162.88;5226129;28;20034;-67
2023/06/23 08:11:28;;;;;;;21.27;18.00;;;;;;;20.07;100.00;102158.28;5220787;28;20033;-67
2023/06/23 08:14:00;;;;;;;23.50;18.15;;;;;;;20.03;100.00;102156.88;5221202;28;20053;-66
2023/06/23 08:16:31;;;;;;;23.30;18.15;;;;;;;20.10;100.00;102163.41;5227203;28;20116;-67
2023/06/23 08:19:03;;;;;;;21.77;18.35;;;;;;;20.07;100.00;102163.69;5229073;28;20045;-67
2023/06/23 08:21:35;;;;;;;22.73;18.27;;;;;;;20.20;100.00;102163.38;5224919;28;20083;-67
2023/06/23 08:24:06;;;;;;;22.15;17.10;;;;;;;20.21;100.00;102163.19;5229424;28;20033;-67
2023/06/23 08:26:38;;;;;;;20.40;16.25;;;;;;;20.27;100.00;102165.34;5229327;28;20525;-66
2023/06/23 08:29:09;;;;;;;18.27;16.20;;;;;;;20.43;100.00;102164.69;5228283;28;20033;-67
2023/06/23 08:31:41;;;;;;;18.05;14.50;;;;;;;20.49;100.00;102169.50;5228153;28;20107;-67
2023/06/23 08:34:12;;;;;;;17.00;14.30;;;;;;;20.65;100.00;102176.16;5221536;28;20028;-67
2023/06/23 08:36:44;;;;;;;13.73;12.10;;;;;;;20.57;100.00;102176.88;5227452;28;20526;-66
2023/06/23 08:39:16;;;;;;;16.42;13.95;;;;;;;20.73;100.00;102168.97;5229906;28;20025;-67
2023/06/23 08:41:49;;;;;;;16.52;14.82;;;;;;;20.68;100.00;102174.00;5227988;28;20388;-67
2023/06/23 08:44:24;;;;;;;16.57;14.87;;;;;;;20.72;100.00;102175.41;5232384;28;20440;-66
2023/06/23 08:47:01;;;;;;;16.55;14.82;;;;;;;20.68;100.00;102176.72;5233811;28;20460;-66
2023/06/23 08:49:38;;;;;;;15.75;12.73;;;;;;;20.73;100.00;102181.69;5224945;28;20175;-67
2023/06/23 08:52:11;;;;;;;17.58;12.77;;;;;;;20.83;100.00;102189.78;5225523;28;20146;-66
2023/06/23 08:54:43;;;;;;;16.05;12.23;;;;;;;20.93;100.00;102179.72;5229408;28;20341;-67
2023/06/23 08:57:15;;;;;;;16.52;11.75;;;;;;;20.91;100.00;102177.16;5228506;28;20396;-66
2023/06/23 08:59:47;;;;;;;13.70;12.05;;;;;;;20.95;100.00;102185.84;5225696;28;20032;-66
2023/06/23 09:02:18;;;;;;;14.65;12.25;;;;;;;21.07;100.00;102184.59;5221739;28;20391;-66
2023/06/23 09:04:49;;;;;;;11.05;9.20;;;;;;;21.04;100.00;102184.06;5230898;28;20021;-66
2023/06/23 09:07:21;;;;;;;11.73;9.23;;;;;;;21.10;100.00;102194.31;5212083;28;20037;-66
2023/06/23 09:09:53;;;;;;;12.35;9.15;;;;;;;21.16;100.00;102190.97;5211997;28;20918;-66
2023/06/23 09:12:25;;;;;;;12.45;9.10;;;;;;;21.14;100.00;102185.69;5212524;28;20557;-66
2023/06/23 09:14:58;;;;;;;15.18;10.48;;;;;;;21.21;100.00;102196.81;5212282;28;20084;-66
2023/06/23 09:17:30;;;;;;;12.60;10.93;;;;;;;21.23;100.00;102193.91;5213385;28;20080;-66
2023/06/23 09:20:03;;;;;;;11.13;8.82;;;;;;;21.24;100.00;102191.03;5211795;28;20284;-66
2023/06/23 09:22:36;;;;;;;11.55;8.90;;;;;;;21.37;100.00;102200.69;5204915;28;20041;-66
2023/06/23 09:25:08;;;;;;;10.98;9.38;;;;;;;21.48;100.00;102192.34;5221094;28;20023;-66
2023/06/23 09:27:40;;;;;;;10.50;8.68;;;;;;;21.54;100.00;102197.13;5213806;28;20373;-66
2023/06/23 09:30:12;;;;;;;12.40;9.57;;;;;;;21.51;100.00;102206.44;5215085;28;20472;-66
2023/06/23 09:32:45;;;;;;;11.63;8.30;;;;;;;21.77;100.00;102208.34;5207288;28;20482;-66
2023/06/23 09:35:18;;;;;;;10.10;8.27;;;;;;;21.61;100.00;102208.22;5211530;28;20400;-66
2023/06/23 09:37:50;;;;;;;10.50;8.32;;;;;;;21.71;100.00;102215.28;5211365;28;20022;-66
2023/06/23 09:40:30;;;;;;;10.25;8.35;;;;;;;21.77;100.00;102213.78;5208853;28;20033;-66
2023/06/23 09:43:01;;;;;;;9.40;7.68;;;;;;;21.81;100.00;102222.47;5211623;28;20022;-66
2023/06/23 09:45:33;;;;;;;10.35;7.45;;;;;;;21.86;100.00;102222.84;5214075;28;20028;-66
2023/06/23 09:48:15;;;;;;;10.00;7.40;;;;;;;21.98;100.00;102227.03;5210648;28;20033;-66
2023/06/23 09:50:58;;;;;;;10.30;7.30;;;;;;;22.08;100.00;102221.47;5213180;28;20441;-66
2023/06/23 09:53:32;;;;;;;10.52;7.78;;;;;;;21.94;100.00;102220.19;5209361;28;20523;-66
2023/06/23 09:56:04;;;;;;;;;;;;;;;22.33;100.00;102230.69;5210036;28;20377;-66
2023/06/23 09:58:40;;;;;;;9.25;6.50;;;;;;;22.32;100.00;102218.06;5210928;28;20253;-66
2023/06/23 10:01:20;;;;;;;11.32;7.15;;;;;;;22.42;100.00;102226.16;5211041;28;20037;-66
2023/06/23 10:04:10;;;;;;;10.50;7.32;;;;;;;22.42;100.00;102218.81;5206742;28;20041;-66
2023/06/23 10:06:41;;;;;;;9.13;7.25;;;;;;;22.42;100.00;102210.66;5225293;28;20049;-65
2023/06/23 10:09:13;;;;;;;9.73;7.03;;;;;;;22.51;100.00;102203.38;5229326;28;20032;-66
2023/06/23 10:11:44;;;;;;;9.32;6.45;;;;;;;22.52;100.00;102207.81;5224872;28;20043;-66
2023/06/23 10:14:16;;;;;;;8.68;6.55;;;;;;;22.64;100.00;102205.66;5233254;28;20087;-66
2023/06/23 10:16:49;;;;;;;10.40;6.90;;;;;;;22.61;100.00;102206.84;5226350;28;20447;-66
2023/06/23 10:19:21;;;;;;;9.63;7.13;;;;;;;22.67;100.00;102211.63;5231235;28;20519;-66
2023/06/23 10:21:53;;;;;;;9.98;7.47;;;;;;;22.62;100.00;102211.25;5227524;28;20033;-66
2023/06/23 10:24:27;;;;;;;8.55;6.55;;;;;;;22.69;100.00;102206.88;5230047;28;20025;-66
2023/06/23 10:26:59;;;;;;;8.63;6.30;;;;;;;22.79;100.00;102211.34;5227470;28;21124;-66
2023/06/23 10:29:33;;;;;;;7.90;5.65;;;;;;;22.99;100.00;102209.19;5234659;28;20056;-66
2023/06/23 10:32:08;;;;;;;7.15;5.82;;;;;;;23.02;100.00;102212.41;5227632;28;20166;-66
2023/06/23 10:34:41;;;;;;;6.95;5.43;;;;;;;23.16;100.00;102210.09;5223683;28;20037;-66
2023/06/23 10:37:15;;;;;;;8.95;5.93;;;;;;;23.36;100.00;102211.50;5230629;28;20079;-66
2023/06/23 10:39:50;;;;;;;7.05;5.63;;;;;;;23.18;100.00;102208.06;5223630;28;20022;-66
2023/06/23 10:42:23;;;;;;;7.97;5.53;;;;;;;23.17;100.00;102212.66;5232826;28;20021;-66
2023/06/23 10:44:55;;;;;;;9.35;5.90;;;;;;;23.25;100.00;102209.09;5225342;28;20060;-66
2023/06/23 10:47:27;;;;;;;8.10;5.82;;;;;;;23.27;100.00;102213.34;5230405;28;20027;-66
2023/06/23 10:49:58;;;;;;;7.88;6.60;;;;;;;23.48;100.00;102217.47;5226889;28;20116;-66
2023/06/23 10:52:30;;;;;;;7.80;6.43;;;;;;;23.49;100.00;102219.16;5235484;28;20048;-66
2023/06/23 10:55:01;;;;;;;8.77;5.93;;;;;;;23.70;100.00;102215.91;5233270;28;20100;-66
2023/06/23 10:57:33;;;;;;;8.32;5.72;;;;;;;23.71;100.00;102217.63;5236044;28;20488;-66
2023/06/23 11:00:07;;;;;;;6.55;5.22;;;;;;;23.80;100.00;102213.09;5230487;28;20039;-67
2023/06/23 11:02:59;;;;;;;8.18;4.95;;;;;;;23.90;100.00;102213.75;5233486;28;20029;-67
2023/06/23 11:05:30;;;;;;;7.63;6.15;;;;;;;23.90;100.00;102218.34;5229752;28;20115;-67
2023/06/23 11:08:03;;;;;;;8.77;5.20;;;;;;;23.87;100.00;102220.41;5233577;28;20029;-66
2023/06/23 11:10:51;;;;;;;6.50;4.70;;;;;;;23.81;100.00;102214.75;5228467;28;20033;-67
2023/06/23 11:13:38;;;;;;;5.68;4.72;;;;;;;23.73;100.00;102218.31;5233654;28;20053;-67
2023/06/23 11:16:27;;;;;;;8.20;5.40;;;;;;;23.74;100.00;102217.31;5226819;28;20476;-66
2023/06/23 11:18:58;;;;;;;6.97;4.50;;;;;;;23.76;100.00;102226.16;5235110;28;20025;-67
2023/06/23 11:21:31;;;;;;;5.95;4.40;;;;;;;23.78;100.00;102225.97;5234366;28;20033;-67
2023/06/23 11:24:09;;;;;;;7.25;4.63;;;;;;;23.86;100.00;102228.75;5229831;28;20042;-67
2023/06/23 11:26:51;;;;;;;7.57;5.07;;;;;;;23.97;100.00;102220.22;5233482;28;20029;-67
2023/06/23 11:29:23;;;;;;;8.05;5.88;;;;;;;23.92;100.00;102222.59;5231621;28;20061;-67
2023/06/23 11:32:02;;;;;;;9.73;6.10;;;;;;;24.07;100.00;102234.50;5231235;28;20025;-67
2023/06/23 11:35:01;;;;;;;9.23;7.05;;;;;;;24.17;100.00;102225.28;5230899;28;20067;-68
2023/06/23 11:37:33;;;;;;;7.57;5.78;;;;;;;24.15;100.00;102227.34;5223913;28;20172;-67